Time;durP1;ratioP1;P1;durP2;ratioP2;P2;SDS_P1;SDS_P2;PMS_P1;PMS_P2;Temp;Humidity;BMP_temperature;BMP_pressure;BME280_temperature;BME280_humidity;BME280_pressure;Samples;Min_cycle;Max_cycle;Signal;HPM_P1;HPM_P2
2022/11/16 00:03:16;;;;;;;26.70;16.80;;;22.50;69.00;;;;;;215677;1277;22453;-58
2022/11/16 00:08:19;;;;;;;22.60;16.10;;;22.40;68.90;;;;;;215618;1269;25401;-56
2022/11/16 00:13:23;;;;;;;24.80;16.00;;;22.20;69.20;;;;;;215206;1296;25421;-58
2022/11/16 00:18:28;;;;;;;21.00;15.70;;;22.20;69.40;;;;;;215883;1275;23835;-58
2022/11/16 00:23:40;;;;;;;25.40;15.90;;;22.10;69.60;;;;;;215596;1276;23842;-57
2022/11/16 00:28:51;;;;;;;21.10;16.10;;;22.00;69.50;;;;;;215583;1276;22583;-58
2022/11/16 00:33:55;;;;;;;22.20;15.80;;;22.00;69.60;;;;;;215570;1283;22519;-57
2022/11/16 00:39:02;;;;;;;23.90;15.80;;;21.90;69.90;;;;;;216410;1292;24173;-57
2022/11/16 00:44:13;;;;;;;24.80;16.20;;;21.90;69.70;;;;;;215528;1276;22468;-57
2022/11/16 00:49:22;;;;;;;19.00;15.90;;;21.80;69.70;;;;;;215285;1273;22484;-57
2022/11/16 00:54:26;;;;;;;24.20;16.10;;;21.80;70.40;;;;;;215648;1297;26497;-55
2022/11/16 00:59:31;;;;;;;20.60;15.60;;;21.70;69.80;;;;;;215569;1274;26158;-57
2022/11/16 01:04:35;;;;;;;24.70;15.70;;;21.70;69.90;;;;;;215677;1281;24256;-57
2022/11/16 01:09:43;;;;;;;22.40;15.30;;;21.60;70.10;;;;;;215565;1276;22630;-58
2022/11/16 01:14:57;;;;;;;21.30;15.20;;;21.60;70.00;;;;;;215426;1279;22510;-57
2022/11/16 01:20:10;;;;;;;26.00;16.00;;;21.50;70.40;;;;;;215479;1273;25360;-57
2022/11/16 01:25:15;;;;;;;21.50;15.80;;;21.50;70.10;;;;;;215388;1269;23879;-57
2022/11/16 01:30:19;;;;;;;20.20;15.60;;;21.50;70.20;;;;;;215438;1274;25607;-57
2022/11/16 01:35:42;;;;;;;21.50;15.50;;;21.40;70.10;;;;;;215526;1279;25655;-57
2022/11/16 01:40:48;;;;;;;22.40;15.90;;;21.40;70.20;;;;;;215026;1269;22468;-57
2022/11/16 01:45:52;;;;;;;21.60;15.90;;;21.30;70.50;;;;;;218416;1283;25437;-58
2022/11/16 01:51:00;;;;;;;19.90;14.40;;;21.30;70.00;;;;;;215546;1279;22464;-58
2022/11/16 01:56:07;;;;;;;20.30;14.80;;;21.30;70.40;;;;;;215605;1283;23278;-56
2022/11/16 02:01:31;;;;;;;20.60;15.00;;;21.30;70.10;;;;;;215646;1266;26528;-58
2022/11/16 02:06:52;;;;;;;18.90;14.50;;;21.20;70.00;;;;;;215655;1274;22588;-58
2022/11/16 02:12:06;;;;;;;19.40;14.60;;;21.20;70.20;;;;;;215170;1300;22447;-56
2022/11/16 02:17:45;;;;;;;17.80;13.30;;;21.20;70.60;;;;;;215053;1283;25213;-57
2022/11/16 02:23:11;;;;;;;21.40;15.70;;;21.10;70.40;;;;;;215186;1278;22851;-58
2022/11/16 02:28:31;;;;;;;19.80;15.20;;;21.10;70.20;;;;;;214981;1269;25283;-57
2022/11/16 02:33:39;;;;;;;18.50;13.70;;;21.00;70.50;;;;;;215302;1275;22454;-57
2022/11/16 02:39:05;;;;;;;20.20;14.50;;;21.10;70.90;;;;;;215313;1276;25424;-57
2022/11/16 02:44:23;;;;;;;19.80;14.60;;;21.00;70.60;;;;;;215120;1276;24258;-57
2022/11/16 02:49:33;;;;;;;20.20;14.30;;;21.00;70.70;;;;;;215204;1287;22485;-57
2022/11/16 02:54:37;;;;;;;16.90;13.80;;;20.90;70.60;;;;;;215131;1276;24251;-57
2022/11/16 02:59:54;;;;;;;19.40;14.90;;;20.90;70.40;;;;;;215291;1281;25538;-57
2022/11/16 03:05:08;;;;;;;18.60;14.00;;;20.90;70.40;;;;;;215237;1274;25555;-57
2022/11/16 03:15:43;;;;;;;18.00;14.00;;;20.90;70.50;;;;;;215704;1291;26482;-57
2022/11/16 03:20:51;;;;;;;19.00;13.70;;;20.90;70.40;;;;;;215472;1293;25197;-56
2022/11/16 03:25:57;;;;;;;17.80;13.10;;;21.00;70.00;;;;;;215596;1276;22538;-57
2022/11/16 03:31:06;;;;;;;17.70;13.00;;;21.40;69.00;;;;;;215328;1276;22451;-57
2022/11/16 03:36:32;;;;;;;19.80;13.70;;;21.70;68.60;;;;;;215361;1277;25527;-57
2022/11/16 03:41:40;;;;;;;17.00;13.90;;;21.90;67.60;;;;;;215150;1269;23718;-56
2022/11/16 03:46:46;;;;;;;17.20;12.70;;;22.10;67.10;;;;;;215530;1283;25415;-57
2022/11/16 03:51:50;;;;;;;16.20;12.60;;;22.20;66.90;;;;;;215472;1282;25502;-57
2022/11/16 03:56:54;;;;;;;16.70;13.00;;;22.20;66.50;;;;;;215583;1285;25551;-56
2022/11/16 04:01:58;;;;;;;16.10;12.20;;;22.30;66.40;;;;;;215511;1285;27695;-57
2022/11/16 04:28:39;;;;;;;15.50;11.70;;;22.50;65.50;;;;;;215573;1290;25336;-57
2022/11/16 04:39:06;;;;;;;15.50;11.60;;;22.60;65.30;;;;;;215426;1284;25411;-58
2022/11/16 04:44:10;;;;;;;17.70;12.00;;;22.70;65.10;;;;;;215651;1274;22464;-56
2022/11/16 04:49:14;;;;;;;15.10;11.70;;;22.70;65.10;;;;;;215509;1283;25575;-57
2022/11/16 04:54:19;;;;;;;15.10;11.80;;;22.70;65.10;;;;;;215573;1274;25287;-57
2022/11/16 04:59:22;;;;;;;14.30;11.20;;;22.60;65.10;;;;;;215711;1291;22507;-57
2022/11/16 05:04:27;;;;;;;15.30;11.60;;;22.60;65.30;;;;;;215349;1298;23863;-57
2022/11/16 05:09:30;;;;;;;15.10;11.70;;;22.50;65.40;;;;;;215575;1284;22492;-57
2022/11/16 05:14:34;;;;;;;16.10;11.90;;;22.40;65.50;;;;;;215577;1298;25301;-59
2022/11/16 05:25:02;;;;;;;15.40;11.60;;;22.30;65.80;;;;;;215640;1283;22454;-57
2022/11/16 05:30:07;;;;;;;14.80;11.50;;;22.20;66.20;;;;;;215372;1289;24246;-57
2022/11/16 05:35:11;;;;;;;15.90;11.20;;;22.10;66.50;;;;;;215531;1279;24885;-58
2022/11/16 05:40:15;;;;;;;14.00;10.70;;;22.00;66.80;;;;;;215530;1276;24239;-57
2022/11/16 05:45:26;;;;;;;;;;;21.90;66.60;;;;;;215732;1272;22507;-56
2022/11/16 05:50:31;;;;;;;16.70;11.00;;;21.90;66.60;;;;;;215554;1273;27573;-57
2022/11/16 05:55:39;;;;;;;14.00;11.10;;;21.80;66.70;;;;;;215475;1290;22445;-58
2022/11/16 06:00:46;;;;;;;15.10;11.30;;;21.80;67.00;;;;;;215491;1277;22501;-58
2022/11/16 06:05:54;;;;;;;13.50;10.80;;;21.70;66.80;;;;;;215383;1274;22452;-59
2022/11/16 06:11:04;;;;;;;15.00;11.60;;;21.70;67.30;;;;;;215430;1272;22489;-59
2022/11/16 06:16:08;;;;;;;13.60;11.00;;;21.60;67.00;;;;;;215374;1280;22604;-58
2022/11/16 06:21:13;;;;;;;16.50;11.50;;;21.60;67.10;;;;;;215646;1274;25315;-57
2022/11/16 06:26:18;;;;;;;14.70;11.90;;;21.60;67.30;;;;;;215372;1285;24279;-58
2022/11/16 06:31:22;;;;;;;13.30;10.90;;;21.50;67.20;;;;;;215541;1274;22446;-61
2022/11/16 06:36:26;;;;;;;14.40;10.90;;;21.50;67.40;;;;;;215634;1274;24246;-58
2022/11/16 06:41:31;;;;;;;16.40;12.30;;;21.40;67.40;;;;;;215654;1272;23996;-57
2022/11/16 06:46:36;;;;;;;13.00;10.80;;;21.40;67.30;;;;;;215388;1275;25534;-59
2022/11/16 06:51:39;;;;;;;13.40;10.50;;;21.40;67.30;;;;;;215628;1273;25437;-57
2022/11/16 06:56:44;;;;;;;14.80;10.70;;;21.30;67.40;;;;;;215663;1280;22477;-57
2022/11/16 07:01:48;;;;;;;15.60;10.90;;;21.30;67.60;;;;;;215311;1272;23434;-58
2022/11/16 07:06:53;;;;;;;19.40;11.50;;;21.30;67.70;;;;;;215548;1274;23124;-58
2022/11/16 07:11:57;;;;;;;17.40;10.70;;;21.30;68.20;;;;;;215600;1273;24176;-57
2022/11/16 07:17:04;;;;;;;16.00;9.40;;;21.30;68.40;;;;;;215423;1278;24209;-57
2022/11/16 07:22:19;;;;;;;16.40;10.00;;;21.30;68.50;;;;;;215713;1280;25364;-56
2022/11/16 07:27:27;;;;;;;16.60;10.60;;;21.30;68.90;;;;;;216164;1284;25294;-57
2022/11/16 07:32:31;;;;;;;18.30;9.80;;;21.30;68.80;;;;;;215287;1280;26430;-57
2022/11/16 07:37:35;;;;;;;16.80;9.60;;;21.20;69.00;;;;;;215659;1275;25354;-57
2022/11/16 07:42:40;;;;;;;21.50;9.90;;;21.20;69.20;;;;;;215563;1272;26479;-57
2022/11/16 07:47:56;;;;;;;14.70;9.30;;;21.20;69.00;;;;;;215464;1285;25453;-54
2022/11/16 07:53:30;;;;;;;19.60;9.20;;;21.20;69.20;;;;;;214939;1279;22470;-54
2022/11/16 07:58:35;;;;;;;20.10;10.50;;;21.20;69.30;;;;;;215370;1285;22463;-55
2022/11/16 08:03:42;;;;;;;24.70;11.70;;;21.20;69.20;;;;;;216410;1275;22810;-54
2022/11/16 08:08:46;;;;;;;24.60;10.70;;;21.10;69.20;;;;;;215651;1282;25321;-54
2022/11/16 08:13:49;;;;;;;16.70;10.70;;;21.10;69.00;;;;;;215438;1272;24271;-54
2022/11/16 08:18:54;;;;;;;17.90;11.50;;;21.10;68.80;;;;;;215595;1298;25543;-55
